sensor_id;sensor_type;location;lat;lon;timestamp;pressure;altitude;pressure_sealevel;temperature;humidity
23473;BME280;11909;52.516;13.564;2022-12-16T00:01:06;100542.13;;;-8.23;89.15
23473;BME280;11909;52.516;13.564;2022-12-16T00:03:34;100543.47;;;-8.18;89.31
23473;BME280;11909;52.516;13.564;2022-12-16T00:06:03;100544.59;;;-8.21;89.20
23473;BME280;11909;52.516;13.564;2022-12-16T00:08:32;100538.97;;;-8.18;89.45
23473;BME280;11909;52.516;13.564;2022-12-16T00:11:01;100542.31;;;-8.16;89.43
23473;BME280;11909;52.516;13.564;2022-12-16T00:13:30;100545.28;;;-8.19;89.52
23473;BME280;11909;52.516;13.564;2022-12-16T00:16:03;100550.44;;;-8.17;89.35
23473;BME280;11909;52.516;13.564;2022-12-16T00:18:31;100549.78;;;-8.19;89.04
23473;BME280;11909;52.516;13.564;2022-12-16T00:20:59;100565.75;;;-8.28;90.24
23473;BME280;11909;52.516;13.564;2022-12-16T00:23:27;100558.91;;;-8.22;91.28
23473;BME280;11909;52.516;13.564;2022-12-16T00:25:56;100553.25;;;-8.19;91.48
23473;BME280;11909;52.516;13.564;2022-12-16T00:28:24;100558.97;;;-8.14;91.34
23473;BME280;11909;52.516;13.564;2022-12-16T00:30:53;100553.78;;;-8.15;90.63
23473;BME280;11909;52.516;13.564;2022-12-16T00:33:24;100559.63;;;-8.12;90.33
23473;BME280;11909;52.516;13.564;2022-12-16T00:35:53;100576.41;;;-8.19;90.30
23473;BME280;11909;52.516;13.564;2022-12-16T00:38:22;100572.09;;;-8.21;90.84
23473;BME280;11909;52.516;13.564;2022-12-16T00:40:50;100574.75;;;-8.21;89.65
23473;BME280;11909;52.516;13.564;2022-12-16T00:43:18;100572.75;;;-8.27;89.68
23473;BME280;11909;52.516;13.564;2022-12-16T00:45:47;100586.31;;;-8.38;89.72
23473;BME280;11909;52.516;13.564;2022-12-16T00:48:17;100584.50;;;-8.38;89.78
23473;BME280;11909;52.516;13.564;2022-12-16T00:50:50;100590.50;;;-8.36;88.83
23473;BME280;11909;52.516;13.564;2022-12-16T00:53:22;100586.84;;;-8.35;89.14
23473;BME280;11909;52.516;13.564;2022-12-16T00:55:50;100588.84;;;-8.37;89.12
23473;BME280;11909;52.516;13.564;2022-12-16T00:58:19;100590.31;;;-8.34;88.27
23473;BME280;11909;52.516;13.564;2022-12-16T01:00:46;100591.44;;;-8.45;88.54
23473;BME280;11909;52.516;13.564;2022-12-16T01:03:14;100588.47;;;-8.50;89.62
23473;BME280;11909;52.516;13.564;2022-12-16T01:05:48;100579.44;;;-8.49;89.36
23473;BME280;11909;52.516;13.564;2022-12-16T01:08:16;100574.66;;;-8.45;88.90
23473;BME280;11909;52.516;13.564;2022-12-16T01:10:49;100579.78;;;-8.44;88.83
23473;BME280;11909;52.516;13.564;2022-12-16T01:13:18;100573.81;;;-8.46;88.96
23473;BME280;11909;52.516;13.564;2022-12-16T01:15:46;100571.81;;;-8.52;89.14
23473;BME280;11909;52.516;13.564;2022-12-16T01:18:14;100581.44;;;-8.59;89.78
23473;BME280;11909;52.516;13.564;2022-12-16T01:20:42;100582.75;;;-8.63;89.72
23473;BME280;11909;52.516;13.564;2022-12-16T01:23:11;100580.09;;;-8.63;90.33
23473;BME280;11909;52.516;13.564;2022-12-16T01:25:38;100582.91;;;-8.65;90.42
23473;BME280;11909;52.516;13.564;2022-12-16T01:28:06;100592.56;;;-8.64;90.91
23473;BME280;11909;52.516;13.564;2022-12-16T01:30:34;100591.88;;;-8.66;90.52
23473;BME280;11909;52.516;13.564;2022-12-16T01:33:02;100600.00;;;-8.68;90.26
23473;BME280;11909;52.516;13.564;2022-12-16T01:35:30;100594.41;;;-8.65;89.65
23473;BME280;11909;52.516;13.564;2022-12-16T01:38:19;100589.75;;;-8.62;89.40
23473;BME280;11909;52.516;13.564;2022-12-16T01:40:47;100585.25;;;-8.62;88.79
23473;BME280;11909;52.516;13.564;2022-12-16T01:43:16;100591.25;;;-8.60;88.95
23473;BME280;11909;52.516;13.564;2022-12-16T01:45:45;100586.09;;;-8.61;88.27
23473;BME280;11909;52.516;13.564;2022-12-16T01:48:19;100580.91;;;-8.63;88.22
23473;BME280;11909;52.516;13.564;2022-12-16T01:50:49;100583.91;;;-8.66;88.26
23473;BME280;11909;52.516;13.564;2022-12-16T01:53:21;100585.03;;;-8.69;88.58
23473;BME280;11909;52.516;13.564;2022-12-16T01:55:50;100577.69;;;-8.75;89.41
23473;BME280;11909;52.516;13.564;2022-12-16T01:58:22;100575.25;;;-8.68;90.53
23473;BME280;11909;52.516;13.564;2022-12-16T02:00:52;100579.59;;;-8.59;90.82
23473;BME280;11909;52.516;13.564;2022-12-16T02:03:20;100574.34;;;-8.51;90.75
23473;BME280;11909;52.516;13.564;2022-12-16T02:05:49;100568.00;;;-8.41;90.67
23473;BME280;11909;52.516;13.564;2022-12-16T02:08:18;100568.69;;;-8.39;90.15
23473;BME280;11909;52.516;13.564;2022-12-16T02:10:58;100576.47;;;-8.46;89.45
23473;BME280;11909;52.516;13.564;2022-12-16T02:13:37;100572.00;;;-8.45;90.29
23473;BME280;11909;52.516;13.564;2022-12-16T02:16:12;100577.00;;;-8.42;91.03
23473;BME280;11909;52.516;13.564;2022-12-16T02:18:49;100570.66;;;-8.41;91.43
23473;BME280;11909;52.516;13.564;2022-12-16T02:21:30;100572.53;;;-8.33;90.75
23473;BME280;11909;52.516;13.564;2022-12-16T02:30:25;100569.31;;;-8.45;89.44
23473;BME280;11909;52.516;13.564;2022-12-16T02:33:04;100573.97;;;-8.47;89.45
23473;BME280;11909;52.516;13.564;2022-12-16T02:35:39;100577.00;;;-8.51;89.40
23473;BME280;11909;52.516;13.564;2022-12-16T02:38:20;100570.81;;;-8.51;89.34
23473;BME280;11909;52.516;13.564;2022-12-16T02:40:53;100565.69;;;-8.53;89.36
23473;BME280;11909;52.516;13.564;2022-12-16T02:43:40;100555.84;;;-8.52;88.78
23473;BME280;11909;52.516;13.564;2022-12-16T02:46:12;100573.94;;;-8.56;88.47
23473;BME280;11909;52.516;13.564;2022-12-16T02:48:40;100560.97;;;-8.59;88.68
23473;BME280;11909;52.516;13.564;2022-12-16T02:51:08;100556.31;;;-8.57;89.13
23473;BME280;11909;52.516;13.564;2022-12-16T02:53:38;100554.66;;;-8.58;88.92
23473;BME280;11909;52.516;13.564;2022-12-16T02:56:13;100557.50;;;-8.59;88.83
23473;BME280;11909;52.516;13.564;2022-12-16T02:58:49;100564.28;;;-8.65;88.54
23473;BME280;11909;52.516;13.564;2022-12-16T03:01:25;100564.75;;;-8.70;88.75
23473;BME280;11909;52.516;13.564;2022-12-16T03:04:01;100566.59;;;-8.70;88.90
23473;BME280;11909;52.516;13.564;2022-12-16T03:06:32;100570.59;;;-8.66;89.20
23473;BME280;11909;52.516;13.564;2022-12-16T03:09:07;100561.94;;;-8.68;88.71
23473;BME280;11909;52.516;13.564;2022-12-16T03:11:36;100571.22;;;-8.72;89.03
23473;BME280;11909;52.516;13.564;2022-12-16T03:14:07;100560.59;;;-8.72;89.08
23473;BME280;11909;52.516;13.564;2022-12-16T03:16:40;100565.13;;;-8.65;89.03
23473;BME280;11909;52.516;13.564;2022-12-16T03:19:09;100565.78;;;-8.62;88.83
23473;BME280;11909;52.516;13.564;2022-12-16T03:21:42;100566.63;;;-8.62;88.84
23473;BME280;11909;52.516;13.564;2022-12-16T03:24:13;100568.75;;;-8.66;88.44
23473;BME280;11909;52.516;13.564;2022-12-16T03:26:44;100571.59;;;-8.67;88.11
23473;BME280;11909;52.516;13.564;2022-12-16T03:29:20;100559.28;;;-8.68;87.91
23473;BME280;11909;52.516;13.564;2022-12-16T03:31:55;100553.28;;;-8.70;88.25
23473;BME280;11909;52.516;13.564;2022-12-16T03:34:28;100541.63;;;-8.69;88.57
23473;BME280;11909;52.516;13.564;2022-12-16T03:37:01;100536.78;;;-8.74;88.48
23473;BME280;11909;52.516;13.564;2022-12-16T03:39:32;100547.63;;;-8.67;88.74
23473;BME280;11909;52.516;13.564;2022-12-16T03:42:01;100543.63;;;-8.71;88.24
23473;BME280;11909;52.516;13.564;2022-12-16T03:44:30;100536.47;;;-8.71;88.47
23473;BME280;11909;52.516;13.564;2022-12-16T03:46:59;100533.59;;;-8.77;88.89
23473;BME280;11909;52.516;13.564;2022-12-16T03:49:27;100534.44;;;-8.77;89.02
23473;BME280;11909;52.516;13.564;2022-12-16T03:51:55;100543.09;;;-8.75;88.77
23473;BME280;11909;52.516;13.564;2022-12-16T03:54:23;100534.31;;;-8.75;89.14
23473;BME280;11909;52.516;13.564;2022-12-16T03:56:51;100535.78;;;-8.73;89.33
23473;BME280;11909;52.516;13.564;2022-12-16T03:59:19;100535.16;;;-8.67;88.59
23473;BME280;11909;52.516;13.564;2022-12-16T04:01:47;100532.50;;;-8.67;88.68
23473;BME280;11909;52.516;13.564;2022-12-16T04:04:17;100540.66;;;-8.68;88.37
23473;BME280;11909;52.516;13.564;2022-12-16T04:06:44;100533.13;;;-8.73;88.64
23473;BME280;11909;52.516;13.564;2022-12-16T04:09:32;100541.63;;;-8.69;89.63
23473;BME280;11909;52.516;13.564;2022-12-16T04:12:00;100550.63;;;-8.70;89.39
23473;BME280;11909;52.516;13.564;2022-12-16T04:14:56;100543.97;;;-8.66;89.72
23473;BME280;11909;52.516;13.564;2022-12-16T04:17:42;100545.00;;;-8.59;89.82
23473;BME280;11909;52.516;13.564;2022-12-16T04:20:31;100547.53;;;-8.57;89.87
23473;BME280;11909;52.516;13.564;2022-12-16T04:23:20;100554.97;;;-8.61;89.77
23473;BME280;11909;52.516;13.564;2022-12-16T04:26:09;100557.16;;;-8.56;89.74
23473;BME280;11909;52.516;13.564;2022-12-16T04:28:36;100556.50;;;-8.58;89.89
23473;BME280;11909;52.516;13.564;2022-12-16T04:31:05;100553.84;;;-8.58;90.04
23473;BME280;11909;52.516;13.564;2022-12-16T04:33:33;100558.31;;;-8.59;90.16
23473;BME280;11909;52.516;13.564;2022-12-16T04:36:19;100564.47;;;-8.58;90.00
23473;BME280;11909;52.516;13.564;2022-12-16T04:39:05;100565.78;;;-8.62;90.84
23473;BME280;11909;52.516;13.564;2022-12-16T04:41:51;100568.06;;;-8.68;90.81
23473;BME280;11909;52.516;13.564;2022-12-16T04:44:36;100567.03;;;-8.75;90.07
23473;BME280;11909;52.516;13.564;2022-12-16T04:47:21;100574.72;;;-8.72;89.19
23473;BME280;11909;52.516;13.564;2022-12-16T04:50:07;100582.88;;;-8.73;89.50
23473;BME280;11909;52.516;13.564;2022-12-16T04:52:54;100581.19;;;-8.74;88.68
23473;BME280;11909;52.516;13.564;2022-12-16T04:55:39;100580.81;;;-8.80;89.58
23473;BME280;11909;52.516;13.564;2022-12-16T04:58:29;100575.00;;;-8.83;89.84
23473;BME280;11909;52.516;13.564;2022-12-16T05:01:15;100569.34;;;-8.80;89.28
23473;BME280;11909;52.516;13.564;2022-12-16T05:04:00;100578.00;;;-8.78;89.26
23473;BME280;11909;52.516;13.564;2022-12-16T05:06:44;100578.47;;;-8.83;89.37
23473;BME280;11909;52.516;13.564;2022-12-16T05:09:31;100584.47;;;-8.81;89.62
23473;BME280;11909;52.516;13.564;2022-12-16T05:12:16;100587.66;;;-8.77;88.94
23473;BME280;11909;52.516;13.564;2022-12-16T05:15:02;100578.53;;;-8.74;89.13
23473;BME280;11909;52.516;13.564;2022-12-16T05:17:47;100576.16;;;-8.77;88.90
23473;BME280;11909;52.516;13.564;2022-12-16T05:20:32;100581.47;;;-8.77;89.61
23473;BME280;11909;52.516;13.564;2022-12-16T05:23:18;100589.78;;;-8.81;89.56
23473;BME280;11909;52.516;13.564;2022-12-16T05:26:04;100587.97;;;-8.80;89.86
23473;BME280;11909;52.516;13.564;2022-12-16T05:28:49;100589.97;;;-8.82;89.54
23473;BME280;11909;52.516;13.564;2022-12-16T05:31:34;100591.09;;;-8.85;89.41
23473;BME280;11909;52.516;13.564;2022-12-16T05:34:20;100590.47;;;-8.79;89.59
23473;BME280;11909;52.516;13.564;2022-12-16T05:37:05;100592.84;;;-8.75;89.81
23473;BME280;11909;52.516;13.564;2022-12-16T05:39:50;100586.81;;;-8.77;89.83
23473;BME280;11909;52.516;13.564;2022-12-16T05:42:37;100591.84;;;-8.74;89.50
23473;BME280;11909;52.516;13.564;2022-12-16T05:45:22;100585.53;;;-8.73;90.08
23473;BME280;11909;52.516;13.564;2022-12-16T05:48:08;100594.50;;;-8.74;89.96
23473;BME280;11909;52.516;13.564;2022-12-16T05:50:53;100595.69;;;-8.69;90.03
23473;BME280;11909;52.516;13.564;2022-12-16T05:53:38;100596.53;;;-8.68;90.33
23473;BME280;11909;52.516;13.564;2022-12-16T05:56:38;100606.69;;;-8.63;90.22
23473;BME280;11909;52.516;13.564;2022-12-16T05:59:37;100606.22;;;-8.59;90.25
23473;BME280;11909;52.516;13.564;2022-12-16T06:02:22;100608.88;;;-8.59;90.85
23473;BME280;11909;52.516;13.564;2022-12-16T06:05:08;100611.88;;;-8.54;90.08
23473;BME280;11909;52.516;13.564;2022-12-16T06:07:50;100620.84;;;-8.55;90.13
23473;BME280;11909;52.516;13.564;2022-12-16T06:10:35;100624.22;;;-8.53;90.03
23473;BME280;11909;52.516;13.564;2022-12-16T06:13:20;100629.38;;;-8.51;89.74
23473;BME280;11909;52.516;13.564;2022-12-16T06:16:07;100633.50;;;-8.57;89.49
23473;BME280;11909;52.516;13.564;2022-12-16T06:18:52;100640.13;;;-8.61;89.53
23473;BME280;11909;52.516;13.564;2022-12-16T06:21:34;100651.63;;;-8.60;90.02
23473;BME280;11909;52.516;13.564;2022-12-16T06:24:19;100663.97;;;-8.51;89.58
23473;BME280;11909;52.516;13.564;2022-12-16T06:27:04;100666.09;;;-8.55;89.27
23473;BME280;11909;52.516;13.564;2022-12-16T06:29:50;100661.59;;;-8.62;89.56
23473;BME280;11909;52.516;13.564;2022-12-16T06:32:36;100664.25;;;-8.62;90.12
23473;BME280;11909;52.516;13.564;2022-12-16T06:35:24;100674.91;;;-8.62;90.03
23473;BME280;11909;52.516;13.564;2022-12-16T06:38:09;100670.41;;;-8.62;90.51
23473;BME280;11909;52.516;13.564;2022-12-16T06:40:54;100679.22;;;-8.61;90.18
23473;BME280;11909;52.516;13.564;2022-12-16T06:43:40;100686.03;;;-8.59;89.95
23473;BME280;11909;52.516;13.564;2022-12-16T06:46:25;100689.38;;;-8.57;89.86
23473;BME280;11909;52.516;13.564;2022-12-16T06:49:12;100697.06;;;-8.54;90.27
23473;BME280;11909;52.516;13.564;2022-12-16T06:51:57;100699.88;;;-8.55;89.66
23473;BME280;11909;52.516;13.564;2022-12-16T06:54:43;100698.66;;;-8.61;90.51
23473;BME280;11909;52.516;13.564;2022-12-16T06:57:28;100698.16;;;-8.65;90.72
23473;BME280;11909;52.516;13.564;2022-12-16T07:00:14;100706.81;;;-8.62;90.49
23473;BME280;11909;52.516;13.564;2022-12-16T07:02:59;100713.50;;;-8.58;89.83
23473;BME280;11909;52.516;13.564;2022-12-16T07:05:46;100716.47;;;-8.61;89.60
23473;BME280;11909;52.516;13.564;2022-12-16T07:08:31;100709.50;;;-8.62;90.33
23473;BME280;11909;52.516;13.564;2022-12-16T07:11:16;100716.31;;;-8.60;90.32
23473;BME280;11909;52.516;13.564;2022-12-16T07:14:02;100727.50;;;-8.56;90.64
23473;BME280;11909;52.516;13.564;2022-12-16T07:16:47;100724.66;;;-8.55;90.80
23473;BME280;11909;52.516;13.564;2022-12-16T07:19:36;100730.28;;;-8.58;91.69
23473;BME280;11909;52.516;13.564;2022-12-16T07:22:22;100728.84;;;-8.52;91.18
23473;BME280;11909;52.516;13.564;2022-12-16T07:25:08;100739.69;;;-8.45;91.22
23473;BME280;11909;52.516;13.564;2022-12-16T07:27:53;100745.53;;;-8.42;90.92
23473;BME280;11909;52.516;13.564;2022-12-16T07:30:41;100744.91;;;-8.36;91.05
23473;BME280;11909;52.516;13.564;2022-12-16T07:33:26;100749.06;;;-8.33;91.13
23473;BME280;11909;52.516;13.564;2022-12-16T07:36:12;100756.78;;;-8.30;91.12
23473;BME280;11909;52.516;13.564;2022-12-16T07:39:10;100766.56;;;-8.30;91.98
23473;BME280;11909;52.516;13.564;2022-12-16T07:41:55;100766.72;;;-8.32;92.54
23473;BME280;11909;52.516;13.564;2022-12-16T07:47:30;100781.44;;;-8.19;92.27
23473;BME280;11909;52.516;13.564;2022-12-16T07:50:16;100779.47;;;-8.17;92.63
23473;BME280;11909;52.516;13.564;2022-12-16T07:53:01;100783.66;;;-8.15;93.29
23473;BME280;11909;52.516;13.564;2022-12-16T07:55:49;100784.16;;;-8.11;92.81
23473;BME280;11909;52.516;13.564;2022-12-16T07:58:35;100789.88;;;-8.06;92.84
23473;BME280;11909;52.516;13.564;2022-12-16T08:01:20;100789.56;;;-8.03;92.78
23473;BME280;11909;52.516;13.564;2022-12-16T08:04:06;100801.56;;;-7.99;92.91
23473;BME280;11909;52.516;13.564;2022-12-16T08:06:51;100797.22;;;-8.00;92.68
23473;BME280;11909;52.516;13.564;2022-12-16T08:09:36;100793.41;;;-7.97;93.15
23473;BME280;11909;52.516;13.564;2022-12-16T08:12:23;100801.88;;;-8.02;93.59
23473;BME280;11909;52.516;13.564;2022-12-16T08:15:09;100794.09;;;-7.95;93.36
23473;BME280;11909;52.516;13.564;2022-12-16T08:17:54;100815.09;;;-7.92;93.56
23473;BME280;11909;52.516;13.564;2022-12-16T08:20:39;100814.94;;;-7.90;93.80
23473;BME280;11909;52.516;13.564;2022-12-16T08:23:24;100814.59;;;-7.87;93.41
23473;BME280;11909;52.516;13.564;2022-12-16T08:26:10;100812.94;;;-7.88;93.88
23473;BME280;11909;52.516;13.564;2022-12-16T08:28:56;100814.09;;;-7.91;93.98
23473;BME280;11909;52.516;13.564;2022-12-16T08:32:02;100814.59;;;-7.87;94.10
23473;BME280;11909;52.516;13.564;2022-12-16T08:34:43;100824.94;;;-7.84;93.62
23473;BME280;11909;52.516;13.564;2022-12-16T08:37:28;100825.03;;;-7.76;93.39
23473;BME280;11909;52.516;13.564;2022-12-16T08:40:14;100823.69;;;-7.72;93.76
23473;BME280;11909;52.516;13.564;2022-12-16T08:43:02;100816.72;;;-7.65;94.06
23473;BME280;11909;52.516;13.564;2022-12-16T08:45:57;100821.44;;;-7.58;94.03
23473;BME280;11909;52.516;13.564;2022-12-16T08:48:43;100814.28;;;-7.58;94.56
23473;BME280;11909;52.516;13.564;2022-12-16T08:51:28;100814.16;;;-7.48;94.70
23473;BME280;11909;52.516;13.564;2022-12-16T08:54:14;100812.72;;;-7.34;94.41
23473;BME280;11909;52.516;13.564;2022-12-16T08:56:59;100822.94;;;-7.21;94.37
23473;BME280;11909;52.516;13.564;2022-12-16T08:59:44;100825.13;;;-7.08;94.71
23473;BME280;11909;52.516;13.564;2022-12-16T09:02:31;100814.00;;;-6.95;94.83
23473;BME280;11909;52.516;13.564;2022-12-16T09:05:16;100826.56;;;-6.79;94.58
23473;BME280;11909;52.516;13.564;2022-12-16T09:08:02;100822.06;;;-6.54;94.51
23473;BME280;11909;52.516;13.564;2022-12-16T09:10:48;100819.75;;;-6.40;94.86
23473;BME280;11909;52.516;13.564;2022-12-16T09:13:33;100831.75;;;-6.28;94.54
23473;BME280;11909;52.516;13.564;2022-12-16T09:16:18;100830.44;;;-6.15;94.60
23473;BME280;11909;52.516;13.564;2022-12-16T09:19:05;100835.91;;;-6.00;94.36
23473;BME280;11909;52.516;13.564;2022-12-16T09:21:50;100846.09;;;-5.96;94.57
23473;BME280;11909;52.516;13.564;2022-12-16T09:24:35;100837.22;;;-5.88;94.38
23473;BME280;11909;52.516;13.564;2022-12-16T09:27:21;100847.41;;;-5.83;94.48
23473;BME280;11909;52.516;13.564;2022-12-16T09:30:08;100839.03;;;-5.80;94.44
23473;BME280;11909;52.516;13.564;2022-12-16T09:32:53;100846.41;;;-5.74;94.33
23473;BME280;11909;52.516;13.564;2022-12-16T09:35:40;100836.69;;;-5.67;93.73
23473;BME280;11909;52.516;13.564;2022-12-16T09:38:25;100848.53;;;-5.61;93.85
23473;BME280;11909;52.516;13.564;2022-12-16T09:41:22;100849.34;;;-5.52;93.76
23473;BME280;11909;52.516;13.564;2022-12-16T09:44:17;100854.50;;;-5.51;93.71
23473;BME280;11909;52.516;13.564;2022-12-16T09:47:10;100845.31;;;-5.48;94.06
23473;BME280;11909;52.516;13.564;2022-12-16T09:50:00;100836.44;;;-5.40;93.81
23473;BME280;11909;52.516;13.564;2022-12-16T09:52:50;100838.28;;;-5.41;93.71
23473;BME280;11909;52.516;13.564;2022-12-16T09:55:43;100836.41;;;-5.32;93.79
23473;BME280;11909;52.516;13.564;2022-12-16T09:58:33;100837.72;;;-5.28;94.08
23473;BME280;11909;52.516;13.564;2022-12-16T10:01:20;100832.81;;;-5.16;93.59
23473;BME280;11909;52.516;13.564;2022-12-16T10:04:06;100823.34;;;-4.95;93.52
23473;BME280;11909;52.516;13.564;2022-12-16T10:06:52;100832.75;;;-4.76;93.64
23473;BME280;11909;52.516;13.564;2022-12-16T10:09:46;100829.22;;;-4.68;93.22
23473;BME280;11909;52.516;13.564;2022-12-16T10:12:41;100826.31;;;-4.58;92.79
23473;BME280;11909;52.516;13.564;2022-12-16T10:15:33;100825.13;;;-4.56;92.95
23473;BME280;11909;52.516;13.564;2022-12-16T10:18:30;100827.06;;;-4.50;92.93
23473;BME280;11909;52.516;13.564;2022-12-16T10:21:23;100820.47;;;-4.39;92.52
23473;BME280;11909;52.516;13.564;2022-12-16T10:24:18;100820.22;;;-4.29;92.41
23473;BME280;11909;52.516;13.564;2022-12-16T10:27:26;100826.34;;;-4.20;92.19
23473;BME280;11909;52.516;13.564;2022-12-16T10:30:32;100821.84;;;-4.05;92.26
23473;BME280;11909;52.516;13.564;2022-12-16T10:33:29;100821.53;;;-3.86;92.22
23473;BME280;11909;52.516;13.564;2022-12-16T10:36:17;100820.03;;;-3.74;91.40
23473;BME280;11909;52.516;13.564;2022-12-16T10:39:09;100826.16;;;-3.65;91.27
23473;BME280;11909;52.516;13.564;2022-12-16T10:42:01;100825.22;;;-3.57;91.27
23473;BME280;11909;52.516;13.564;2022-12-16T10:44:51;100829.94;;;-3.44;91.25
23473;BME280;11909;52.516;13.564;2022-12-16T10:47:38;100830.97;;;-3.31;90.22
23473;BME280;11909;52.516;13.564;2022-12-16T10:50:23;100839.75;;;-3.22;89.73
23473;BME280;11909;52.516;13.564;2022-12-16T10:53:11;100839.34;;;-3.04;89.93
23473;BME280;11909;52.516;13.564;2022-12-16T10:56:04;100854.09;;;-2.99;88.54
23473;BME280;11909;52.516;13.564;2022-12-16T10:58:53;100850.47;;;-3.07;88.01
23473;BME280;11909;52.516;13.564;2022-12-16T11:01:40;100850.03;;;-3.10;88.51
23473;BME280;11909;52.516;13.564;2022-12-16T11:04:31;100853.91;;;-3.13;88.63
23473;BME280;11909;52.516;13.564;2022-12-16T11:07:25;100858.16;;;-3.19;88.51
23473;BME280;11909;52.516;13.564;2022-12-16T11:10:32;100855.38;;;-3.25;88.68
23473;BME280;11909;52.516;13.564;2022-12-16T11:13:21;100859.66;;;-3.31;89.05
23473;BME280;11909;52.516;13.564;2022-12-16T11:16:13;100851.69;;;-3.39;89.27
23473;BME280;11909;52.516;13.564;2022-12-16T11:19:00;100844.88;;;-3.42;89.49
23473;BME280;11909;52.516;13.564;2022-12-16T11:21:45;100853.56;;;-3.40;89.76
23473;BME280;11909;52.516;13.564;2022-12-16T11:24:31;100860.38;;;-3.37;90.43
23473;BME280;11909;52.516;13.564;2022-12-16T11:27:22;100850.78;;;-3.32;90.89
23473;BME280;11909;52.516;13.564;2022-12-16T11:30:17;100852.81;;;-3.34;91.02
23473;BME280;11909;52.516;13.564;2022-12-16T11:33:11;100866.78;;;-3.38;91.03
23473;BME280;11909;52.516;13.564;2022-12-16T11:36:05;100864.19;;;-3.32;91.08
23473;BME280;11909;52.516;13.564;2022-12-16T11:38:51;100863.72;;;-3.35;91.37
23473;BME280;11909;52.516;13.564;2022-12-16T11:41:39;100866.97;;;-3.40;91.59
23473;BME280;11909;52.516;13.564;2022-12-16T11:44:28;100865.69;;;-3.44;91.32
23473;BME280;11909;52.516;13.564;2022-12-16T11:47:21;100864.28;;;-3.40;91.61
23473;BME280;11909;52.516;13.564;2022-12-16T11:50:10;100875.19;;;-3.41;91.67
23473;BME280;11909;52.516;13.564;2022-12-16T11:52:59;100876.69;;;-3.39;91.64
23473;BME280;11909;52.516;13.564;2022-12-16T11:55:49;100872.44;;;-3.33;91.20
23473;BME280;11909;52.516;13.564;2022-12-16T11:58:45;100872.25;;;-3.32;91.52
23473;BME280;11909;52.516;13.564;2022-12-16T12:01:33;100877.06;;;-3.27;91.29
23473;BME280;11909;52.516;13.564;2022-12-16T12:04:21;100875.13;;;-3.18;91.67
23473;BME280;11909;52.516;13.564;2022-12-16T12:07:24;100869.16;;;-3.13;92.13
23473;BME280;11909;52.516;13.564;2022-12-16T12:10:37;100859.91;;;-3.11;91.13
23473;BME280;11909;52.516;13.564;2022-12-16T12:13:41;100865.75;;;-3.07;91.14
23473;BME280;11909;52.516;13.564;2022-12-16T12:16:36;100868.06;;;-3.04;90.94
23473;BME280;11909;52.516;13.564;2022-12-16T12:19:31;100870.13;;;-3.06;91.03
23473;BME280;11909;52.516;13.564;2022-12-16T12:22:33;100879.53;;;-2.95;91.80
23473;BME280;11909;52.516;13.564;2022-12-16T12:25:23;100878.06;;;-2.98;91.45
23473;BME280;11909;52.516;13.564;2022-12-16T12:28:21;100874.47;;;-3.05;91.20
23473;BME280;11909;52.516;13.564;2022-12-16T12:31:18;100881.75;;;-2.99;91.40
23473;BME280;11909;52.516;13.564;2022-12-16T12:34:16;100886.56;;;-2.94;91.69
23473;BME280;11909;52.516;13.564;2022-12-16T12:37:07;100883.31;;;-2.90;92.36
23473;BME280;11909;52.516;13.564;2022-12-16T12:40:03;100890.16;;;-2.87;92.18
23473;BME280;11909;52.516;13.564;2022-12-16T12:42:58;100886.56;;;-2.94;91.71
23473;BME280;11909;52.516;13.564;2022-12-16T12:45:54;100880.94;;;-2.99;92.83
23473;BME280;11909;52.516;13.564;2022-12-16T12:48:46;100896.09;;;-2.92;92.64
23473;BME280;11909;52.516;13.564;2022-12-16T12:51:40;100884.72;;;-2.94;92.44
23473;BME280;11909;52.516;13.564;2022-12-16T12:54:41;100891.38;;;-2.90;92.94
23473;BME280;11909;52.516;13.564;2022-12-16T12:57:28;100898.22;;;-2.87;92.82
23473;BME280;11909;52.516;13.564;2022-12-16T13:00:16;100897.22;;;-2.86;92.81
23473;BME280;11909;52.516;13.564;2022-12-16T13:03:11;100897.41;;;-2.88;92.45
23473;BME280;11909;52.516;13.564;2022-12-16T13:06:15;100910.38;;;-2.91;92.67
23473;BME280;11909;52.516;13.564;2022-12-16T13:09:02;100913.69;;;-2.89;92.47
23473;BME280;11909;52.516;13.564;2022-12-16T13:12:27;100916.22;;;-2.88;92.86
23473;BME280;11909;52.516;13.564;2022-12-16T13:15:19;100924.06;;;-2.86;92.66
23473;BME280;11909;52.516;13.564;2022-12-16T13:21:41;100930.94;;;-2.83;93.04
23473;BME280;11909;52.516;13.564;2022-12-16T13:24:36;100919.16;;;-2.82;92.88
23473;BME280;11909;52.516;13.564;2022-12-16T13:27:22;100931.38;;;-2.80;93.29
23473;BME280;11909;52.516;13.564;2022-12-16T13:30:20;100931.56;;;-2.81;93.46
23473;BME280;11909;52.516;13.564;2022-12-16T13:33:22;100930.00;;;-2.76;92.83
23473;BME280;11909;52.516;13.564;2022-12-16T13:36:08;100927.13;;;-2.74;93.10
23473;BME280;11909;52.516;13.564;2022-12-16T13:38:55;100938.88;;;-2.75;93.45
23473;BME280;11909;52.516;13.564;2022-12-16T13:41:50;100942.22;;;-2.73;93.52
23473;BME280;11909;52.516;13.564;2022-12-16T13:44:56;100947.50;;;-2.80;92.82
23473;BME280;11909;52.516;13.564;2022-12-16T13:47:59;100953.44;;;-2.84;93.56
23473;BME280;11909;52.516;13.564;2022-12-16T13:50:48;100950.00;;;-2.78;93.38
23473;BME280;11909;52.516;13.564;2022-12-16T13:53:40;100964.84;;;-2.82;93.72
23473;BME280;11909;52.516;13.564;2022-12-16T13:56:32;100959.63;;;-2.84;94.04
23473;BME280;11909;52.516;13.564;2022-12-16T13:59:20;100965.47;;;-2.80;93.75
23473;BME280;11909;52.516;13.564;2022-12-16T14:02:25;100967.13;;;-2.79;93.81
23473;BME280;11909;52.516;13.564;2022-12-16T14:05:21;100976.97;;;-2.86;93.69
23473;BME280;11909;52.516;13.564;2022-12-16T14:08:12;100975.66;;;-2.91;94.31
23473;BME280;11909;52.516;13.564;2022-12-16T14:11:00;100982.88;;;-2.91;94.48
23473;BME280;11909;52.516;13.564;2022-12-16T14:13:52;100992.88;;;-2.85;94.84
23473;BME280;11909;52.516;13.564;2022-12-16T14:16:46;100991.03;;;-2.84;94.29